createdAt,value
2019-02-17T00:00:43.070Z,98666.16
2019-02-17T00:02:44.667Z,98662.78
2019-02-17T00:04:46.291Z,98659.41
2019-02-17T00:06:47.871Z,98661.15
2019-02-17T00:08:49.442Z,98665.41
2019-02-17T00:10:51.066Z,98666.69
2019-02-17T00:12:52.650Z,98667.99
2019-02-17T00:14:54.248Z,98665.02
2019-02-17T00:16:55.853Z,98663.73
2019-02-17T00:18:57.430Z,98666.33
2019-02-17T00:20:59.061Z,98659.52
2019-02-17T00:23:00.662Z,98671.01
2019-02-17T00:25:02.258Z,98667.14
2019-02-17T00:27:03.837Z,98668.42
2019-02-17T00:29:05.415Z,98671.41
2019-02-17T00:31:07.014Z,98666.30
2019-02-17T00:33:08.646Z,98668.81
2019-02-17T00:35:10.223Z,98674.70
2019-02-17T00:37:11.791Z,98681.48
2019-02-17T00:39:13.406Z,98680.98
2019-02-17T00:41:15.001Z,98680.48
2019-02-17T00:43:16.582Z,98683.02
2019-02-17T00:45:18.178Z,98685.95
2019-02-17T00:47:19.750Z,98685.53
2019-02-17T00:49:21.326Z,98685.95
2019-02-17T00:51:22.918Z,98682.97
2019-02-17T00:53:24.538Z,98676.77
2019-02-17T00:55:26.106Z,98686.17
2019-02-17T00:57:27.694Z,98682.30
2019-02-17T00:59:29.266Z,98682.77
2019-02-17T01:01:30.864Z,98681.94
2019-02-17T01:03:32.478Z,98681.48
2019-02-17T01:05:34.111Z,98681.05
2019-02-17T01:07:35.691Z,98681.13
2019-02-17T01:09:37.290Z,98675.13
2019-02-17T01:11:38.910Z,98673.03
2019-02-17T01:13:40.478Z,98670.94
2019-02-17T01:15:42.046Z,98672.61
2019-02-17T01:17:43.639Z,98676.02
2019-02-17T01:19:45.234Z,98680.73
2019-02-17T01:21:46.831Z,98682.02
2019-02-17T01:23:48.455Z,98680.77
2019-02-17T01:25:50.027Z,98681.63
2019-02-17T01:27:51.618Z,98676.52
2019-02-17T01:29:53.192Z,98676.97
2019-02-17T01:31:54.771Z,98668.45
2019-02-17T01:33:56.377Z,98663.77
2019-02-17T01:35:58.003Z,98664.66
2019-02-17T01:37:59.581Z,98665.94
2019-02-17T01:40:01.154Z,98663.34
2019-02-17T01:42:02.750Z,98669.31
2019-02-17T01:44:04.326Z,98671.44
2019-02-17T01:46:05.918Z,98668.88
2019-02-17T01:48:07.530Z,98669.73
2019-02-17T01:50:09.123Z,98665.47
2019-02-17T01:52:10.695Z,98662.42
2019-02-17T01:54:12.285Z,98666.25
2019-02-17T01:56:13.911Z,98666.25
2019-02-17T01:58:15.482Z,98662.42
2019-02-17T02:00:17.074Z,98665.02
2019-02-17T02:02:18.673Z,98665.47
2019-02-17T02:04:20.255Z,98668.03
2019-02-17T02:06:21.855Z,98656.11
2019-02-17T02:08:23.482Z,98663.77
2019-02-17T02:10:25.077Z,98661.22
2019-02-17T02:12:26.662Z,98655.25
2019-02-17T02:14:28.238Z,98662.45
2019-02-17T02:16:29.834Z,98659.05
2019-02-17T02:18:31.426Z,98659.48
2019-02-17T02:20:33.022Z,98655.68
2019-02-17T02:22:34.603Z,98657.77
2019-02-17T02:24:36.174Z,98663.31
2019-02-17T02:26:37.798Z,98663.73
2019-02-17T02:28:39.418Z,98663.31
2019-02-17T02:30:40.988Z,98661.61
2019-02-17T02:32:42.579Z,98660.30
2019-02-17T02:34:44.175Z,98654.34
2019-02-17T02:36:45.769Z,98656.89
2019-02-17T02:38:47.355Z,98656.03
2019-02-17T02:40:48.986Z,98650.47
2019-02-17T02:42:50.560Z,98644.08
2019-02-17T02:44:52.158Z,98648.77
2019-02-17T02:46:53.734Z,98638.58
2019-02-17T02:48:55.331Z,98641.98
2019-02-17T02:50:56.936Z,98624.63
2019-02-17T02:52:58.542Z,98645.36
2019-02-17T03:57:09.602Z,98657.56
2019-02-17T03:59:11.174Z,98657.97
2019-02-17T04:01:12.767Z,98651.97
2019-02-17T04:03:14.357Z,98653.16
2019-02-17T04:05:15.950Z,98650.04
2019-02-17T04:07:17.552Z,98648.69
2019-02-17T04:09:19.149Z,98641.73
2019-02-17T04:11:20.729Z,98642.84
2019-02-17T04:13:22.327Z,98647.37
2019-02-17T04:15:23.939Z,98645.95
2019-02-17T04:17:25.552Z,98651.45
2019-02-17T04:19:27.127Z,98652.20
2019-02-17T04:21:28.711Z,98653.41
2019-02-17T04:23:31.573Z,98648.65
2019-02-17T04:25:31.967Z,98651.56
2019-02-17T04:27:33.551Z,98646.77
2019-02-17T04:29:35.191Z,98655.25
2019-02-17T04:31:36.797Z,98659.00
2019-02-17T04:33:38.378Z,98657.18
2019-02-17T04:35:39.959Z,98656.36
2019-02-17T04:37:41.560Z,98655.43
2019-02-17T04:39:43.138Z,98651.40
2019-02-17T04:41:44.743Z,98650.11
2019-02-17T04:43:46.347Z,98652.92
2019-02-17T04:45:47.951Z,98651.60
2019-02-17T04:47:49.574Z,98647.77
2019-02-17T04:49:51.155Z,98649.52
2019-02-17T04:51:52.746Z,98653.35
2019-02-17T04:53:54.346Z,98654.21
2019-02-17T04:55:55.951Z,98652.20
2019-02-17T04:57:57.567Z,98645.00
2019-02-17T04:59:59.146Z,98652.33
2019-02-17T05:02:00.723Z,98652.06
2019-02-17T05:04:02.365Z,98650.87
2019-02-17T05:06:03.963Z,98647.50
2019-02-17T05:08:05.551Z,98646.69
2019-02-17T05:10:07.171Z,98653.97
2019-02-17T05:12:08.774Z,98655.28
2019-02-17T05:14:10.370Z,98651.91
2019-02-17T05:16:11.963Z,98654.89
2019-02-17T05:18:13.552Z,98649.86
2019-02-17T05:20:15.196Z,98657.52
2019-02-17T05:22:16.780Z,98661.82
2019-02-17T05:24:18.352Z,98658.02
2019-02-17T05:26:19.948Z,98656.32
2019-02-17T05:28:21.531Z,98658.06
2019-02-17T05:30:23.102Z,98651.74
2019-02-17T05:32:24.727Z,98646.24
2019-02-17T05:34:26.311Z,98658.59
2019-02-17T05:36:27.912Z,98662.03
2019-02-17T05:38:29.521Z,98660.79
2019-02-17T05:40:31.119Z,98662.03
2019-02-17T05:42:32.699Z,98664.55
2019-02-17T05:44:34.302Z,98659.09
2019-02-17T05:46:35.870Z,98660.37
2019-02-17T05:48:37.448Z,98666.30
2019-02-17T05:50:39.079Z,98662.84
2019-02-17T05:52:40.758Z,98670.98
2019-02-17T05:54:42.330Z,98674.06
2019-02-17T05:56:43.903Z,98677.89
2019-02-17T05:58:45.575Z,98673.63
2019-02-17T06:00:47.169Z,98679.59
2019-02-17T06:02:48.743Z,98675.30
2019-02-17T06:04:50.317Z,98678.67
2019-02-17T06:06:51.931Z,98684.99
2019-02-17T06:08:53.531Z,98684.14
2019-02-17T06:10:55.110Z,98681.13
2019-02-17T06:12:56.746Z,98687.09
2019-02-17T06:14:58.324Z,98688.72
2019-02-17T06:16:59.898Z,98687.38
2019-02-17T06:19:01.496Z,98681.77
2019-02-17T06:21:03.078Z,98688.94
2019-02-17T06:23:04.698Z,98691.38
2019-02-17T06:25:06.310Z,98686.27
2019-02-17T06:27:07.954Z,98686.70
2019-02-17T06:29:09.545Z,98688.40
2019-02-17T06:31:14.404Z,98687.55
2019-02-17T06:33:12.742Z,98690.99
2019-02-17T06:35:14.315Z,98693.13
2019-02-17T06:37:15.906Z,98693.13
2019-02-17T06:39:17.520Z,98687.94
2019-02-17T06:41:19.110Z,98691.38
2019-02-17T06:43:20.713Z,98689.72
2019-02-17T06:45:22.325Z,98693.52
2019-02-17T06:47:23.899Z,98697.84
2019-02-17T06:49:26.125Z,98698.23
2019-02-17T06:51:27.734Z,98695.72
2019-02-17T06:53:29.330Z,98695.36
2019-02-17T06:55:31.873Z,98694.55
2019-02-17T06:57:33.450Z,98695.01
2019-02-17T06:59:35.047Z,98701.86
2019-02-17T07:01:36.623Z,98695.40
2019-02-17T07:03:38.235Z,98699.30
2019-02-17T07:05:57.595Z,98695.11
2019-02-17T07:07:59.214Z,98703.27
2019-02-17T07:10:00.817Z,98699.05
2019-02-17T07:12:02.488Z,98702.45
2019-02-17T07:14:04.050Z,98706.35
2019-02-17T07:16:05.646Z,98710.22
2019-02-17T07:18:07.252Z,98700.09
2019-02-17T07:20:09.754Z,98701.38
2019-02-17T07:22:10.446Z,98698.84
2019-02-17T07:24:12.054Z,98696.78
2019-02-17T07:26:13.623Z,98699.39
2019-02-17T07:28:15.228Z,98695.59
2019-02-17T07:30:16.794Z,98692.58
2019-02-17T07:32:18.378Z,98688.78
2019-02-17T07:34:20.002Z,98696.38
2019-02-17T07:36:22.193Z,98692.92
2019-02-17T07:38:23.260Z,98695.84
2019-02-17T07:40:24.851Z,98696.20
2019-02-17T07:42:26.450Z,98694.89
2019-02-17T07:44:28.045Z,98689.71
2019-02-17T07:46:29.647Z,98693.09
2019-02-17T07:48:31.270Z,98689.97
2019-02-17T07:50:32.842Z,98689.89
2019-02-17T07:52:34.447Z,98691.92
2019-02-17T07:54:36.046Z,98695.17
2019-02-17T07:56:37.646Z,98698.05
2019-02-17T07:58:39.246Z,98697.12
2019-02-17T08:00:40.834Z,98708.12
2019-02-17T08:02:42.426Z,98686.73
2019-02-17T08:04:44.046Z,98693.98
2019-02-17T08:06:45.637Z,98689.68
2019-02-17T08:08:47.343Z,98693.55
2019-02-17T08:10:48.957Z,98691.42
2019-02-17T08:12:50.544Z,98694.91
2019-02-17T08:14:52.138Z,98698.36
2019-02-17T08:16:53.748Z,98690.80
2019-02-17T08:18:55.332Z,98691.31
2019-02-17T08:20:56.931Z,98668.48
2019-02-17T08:22:58.573Z,98688.36
2019-02-17T08:25:00.315Z,98685.42
2019-02-17T08:27:01.845Z,98682.51
2019-02-17T08:29:03.435Z,98681.23
2019-02-17T08:31:05.053Z,98686.31
2019-02-17T08:33:06.677Z,98686.66
2019-02-17T08:35:08.302Z,98685.69
2019-02-17T08:37:09.897Z,98683.05
2019-02-17T08:39:11.491Z,98680.89
2019-02-17T08:41:13.095Z,98681.27
2019-02-17T08:43:14.772Z,98679.99
2019-02-17T08:45:16.401Z,98682.94
2019-02-17T08:47:17.993Z,98676.08
2019-02-17T08:49:19.656Z,98675.22
2019-02-17T08:51:21.275Z,98674.37
2019-02-17T08:53:22.902Z,98679.45
2019-02-17T08:55:24.526Z,98675.14
2019-02-17T08:57:26.125Z,98674.70
2019-02-17T08:59:27.851Z,98667.42
2019-02-17T09:01:29.474Z,98667.84
2019-02-17T09:03:31.107Z,98669.94
2019-02-17T09:05:32.746Z,98663.11
2019-02-17T09:07:34.342Z,98669.42
2019-02-17T09:09:35.937Z,98668.06
2019-02-17T09:11:37.538Z,98665.92
2019-02-17T09:13:39.126Z,98668.91
2019-02-17T09:15:40.717Z,98671.42
2019-02-17T09:17:42.366Z,98665.88
2019-02-17T09:19:43.961Z,98668.81
2019-02-17T09:21:45.557Z,98666.13
2019-02-17T09:23:47.185Z,98672.79
2019-02-17T09:25:48.782Z,98672.27
2019-02-17T09:27:50.378Z,98670.39
2019-02-17T09:29:51.970Z,98666.98
2019-02-17T09:31:53.565Z,98669.24
2019-02-17T09:33:55.210Z,98662.47
2019-02-17T09:35:56.969Z,98663.80
2019-02-17T09:37:58.592Z,98664.68
2019-02-17T09:40:00.337Z,98662.55
2019-02-17T09:42:01.866Z,98664.69
2019-02-17T09:44:03.459Z,98662.13
2019-02-17T09:46:05.090Z,98662.55
2019-02-17T09:48:06.686Z,98661.70
2019-02-17T09:50:08.286Z,98664.22
2019-02-17T09:52:09.890Z,98669.33
2019-02-17T09:54:11.480Z,98650.70
2019-02-17T09:56:14.123Z,98665.48
2019-02-17T09:58:15.755Z,98666.73
2019-02-17T10:00:17.349Z,98665.41
2019-02-17T10:02:26.318Z,98662.42
2019-02-17T10:04:20.589Z,98665.36
2019-02-17T10:06:22.183Z,98661.91
2019-02-17T10:08:23.798Z,98653.33
2019-02-17T10:10:25.426Z,98650.77
2019-02-17T10:12:27.100Z,98654.99
2019-02-17T10:14:28.742Z,98650.30
2019-02-17T10:16:30.341Z,98652.00
2019-02-17T10:18:31.948Z,98633.80
2019-02-17T10:20:33.583Z,98648.08
2019-02-17T10:22:35.178Z,98648.07
2019-02-17T10:24:36.763Z,98646.84
2019-02-17T10:26:38.360Z,98639.59
2019-02-17T10:28:42.364Z,98635.33
2019-02-17T10:30:41.597Z,98648.98
2019-02-17T10:32:43.219Z,98643.00
2019-02-17T10:34:44.848Z,98643.04
2019-02-17T10:36:46.459Z,98645.13
2019-02-17T10:41:01.766Z,98640.88
2019-02-17T10:43:03.711Z,98639.97
2019-02-17T10:45:05.043Z,98632.76
2019-02-17T10:47:06.651Z,98629.11
2019-02-17T10:49:08.258Z,98617.55
2019-02-17T10:51:09.871Z,98621.58
2019-02-17T10:53:11.508Z,98609.20
2019-02-17T10:55:13.124Z,98611.95
2019-02-17T10:57:14.736Z,98612.85
2019-02-17T10:59:16.338Z,98611.29
2019-02-17T11:01:17.950Z,98613.05
2019-02-17T11:03:19.551Z,98610.61
2019-02-17T11:05:21.179Z,98606.65
2019-02-17T11:07:22.801Z,98599.45
2019-02-17T11:09:24.436Z,98607.61
2019-02-17T11:11:26.062Z,98606.14
2019-02-17T11:13:27.675Z,98603.89
2019-02-17T11:15:29.289Z,98609.58
2019-02-17T11:19:44.957Z,98594.48
2019-02-17T11:21:46.552Z,98601.34
2019-02-17T11:23:54.256Z,98442.06
2019-02-17T11:25:55.921Z,98594.86
2019-02-17T11:27:57.525Z,98590.00
2019-02-17T11:29:59.233Z,98587.27
2019-02-17T11:32:00.834Z,98575.91
2019-02-17T11:34:02.455Z,98581.75
2019-02-17T11:36:04.092Z,98581.59
2019-02-17T11:38:05.718Z,98586.68
2019-02-17T11:40:07.337Z,98585.16
2019-02-17T11:42:08.949Z,98575.31
2019-02-17T11:44:10.579Z,98580.98
2019-02-17T11:46:12.198Z,98532.39
2019-02-17T11:48:13.875Z,98593.75
2019-02-17T11:50:15.932Z,98590.24
2019-02-17T11:52:17.227Z,98589.73
2019-02-17T11:54:18.884Z,98584.59
2019-02-17T11:56:20.480Z,98590.98
2019-02-17T11:58:22.100Z,98579.01
2019-02-17T12:00:23.693Z,98572.14
2019-02-17T12:02:25.514Z,98564.11
2019-02-17T12:04:27.576Z,98583.19
2019-02-17T12:06:29.201Z,98567.59
2019-02-17T12:08:30.822Z,98570.38
2019-02-17T12:10:32.459Z,98570.05
2019-02-17T12:12:34.063Z,98567.14
2019-02-17T12:14:35.672Z,98564.94
2019-02-17T12:16:37.429Z,98568.25
2019-02-17T12:18:38.943Z,98558.57
2019-02-17T12:20:42.459Z,98560.84
2019-02-17T12:22:44.054Z,98558.38
2019-02-17T12:24:45.671Z,98554.27
2019-02-17T12:26:53.088Z,98553.27
2019-02-17T12:28:55.493Z,98553.51
2019-02-17T12:30:57.080Z,98553.91
2019-02-17T12:32:58.676Z,98554.61
2019-02-17T12:35:00.271Z,98551.77
2019-02-17T12:37:01.895Z,98545.85
2019-02-17T12:39:03.521Z,98544.06
2019-02-17T12:41:05.164Z,98545.70
2019-02-17T12:43:06.820Z,98550.81
2019-02-17T12:45:08.494Z,98541.23
2019-02-17T12:47:10.104Z,98540.92
2019-02-17T12:49:11.715Z,98533.22
2019-02-17T12:51:13.314Z,98541.59
2019-02-17T12:53:14.917Z,98531.23
2019-02-17T12:55:16.503Z,98535.02
2019-02-17T12:57:18.124Z,98531.61
2019-02-17T12:59:19.746Z,98533.30
2019-02-17T13:01:21.356Z,98537.15
2019-02-17T13:03:28.516Z,98530.48
2019-02-17T13:05:24.597Z,98531.89
2019-02-17T13:07:26.204Z,98533.72
2019-02-17T13:09:27.840Z,98531.72
2019-02-17T13:11:30.391Z,98534.75
2019-02-17T13:13:32.013Z,98530.97
2019-02-17T13:15:33.655Z,98525.05
2019-02-17T13:17:35.290Z,98530.13
2019-02-17T13:19:36.920Z,98534.44
2019-02-17T13:21:38.622Z,98528.48
2019-02-17T13:23:40.226Z,98520.48
2019-02-17T13:25:41.822Z,98525.61
2019-02-17T13:27:43.475Z,98520.16
2019-02-17T13:29:45.088Z,98516.80
2019-02-17T13:31:46.676Z,98516.86
2019-02-17T13:33:48.284Z,98519.91
2019-02-17T13:35:49.877Z,98517.34
2019-02-17T13:37:51.460Z,98516.11
2019-02-17T13:39:53.127Z,98513.44
2019-02-17T13:41:54.726Z,98515.67
2019-02-17T13:43:56.321Z,98520.38
2019-02-17T13:45:57.961Z,98514.92
2019-02-17T13:47:59.590Z,98515.83
2019-02-17T13:50:01.231Z,98517.16
2019-02-17T13:52:02.865Z,98514.59
2019-02-17T13:54:04.470Z,98510.77
2019-02-17T13:56:06.062Z,98461.83
2019-02-17T13:58:07.735Z,98509.06
2019-02-17T14:00:09.340Z,98509.87
2019-02-17T14:02:10.971Z,98507.35
2019-02-17T14:04:12.655Z,98502.71
2019-02-17T14:06:14.313Z,98503.23
2019-02-17T14:08:15.958Z,98500.80
2019-02-17T14:10:17.696Z,98494.97
2019-02-17T14:12:19.307Z,98498.05
2019-02-17T14:14:20.909Z,98503.77
2019-02-17T14:16:22.529Z,98494.06
2019-02-17T14:18:24.131Z,98493.41
2019-02-17T14:20:25.715Z,98495.83
2019-02-17T14:22:27.352Z,98492.79
2019-02-17T14:24:28.968Z,98491.84
2019-02-17T14:26:30.607Z,98490.50
2019-02-17T14:28:32.229Z,98485.80
2019-02-17T14:30:33.822Z,98490.88
2019-02-17T14:32:35.446Z,98485.33
2019-02-17T14:34:37.067Z,98491.26
2019-02-17T14:36:38.684Z,98495.94
2019-02-17T14:38:40.292Z,98486.14
2019-02-17T14:40:41.876Z,98484.91
2019-02-17T14:42:43.470Z,98481.97
2019-02-17T14:44:45.076Z,98481.13
2019-02-17T14:46:46.701Z,98479.48
2019-02-17T14:48:48.307Z,98475.17
2019-02-17T14:50:49.982Z,98476.50
2019-02-17T14:52:51.682Z,98468.07
2019-02-17T14:54:53.282Z,98447.86
2019-02-17T14:56:54.879Z,98452.55
2019-02-17T14:58:56.473Z,98466.45
2019-02-17T15:00:58.109Z,98467.17
2019-02-17T15:02:59.696Z,98466.27
2019-02-17T15:05:01.339Z,98458.27
2019-02-17T15:07:02.947Z,98469.39
2019-02-17T15:09:04.586Z,98462.67
2019-02-17T15:11:06.252Z,98461.41
2019-02-17T15:13:07.850Z,98442.76
2019-02-17T15:15:09.453Z,98435.41
2019-02-17T15:17:12.128Z,98448.98
2019-02-17T15:19:15.039Z,98447.16
2019-02-17T15:21:15.423Z,98441.77
2019-02-17T15:23:17.023Z,98442.28
2019-02-17T15:25:18.670Z,98439.83
2019-02-17T15:27:20.350Z,98439.48
2019-02-17T15:29:21.945Z,98432.72
2019-02-17T15:31:23.537Z,98436.59
2019-02-17T15:33:25.193Z,98437.08
2019-02-17T15:35:26.787Z,98431.16
2019-02-17T15:37:28.390Z,98431.20
2019-02-17T15:39:29.999Z,98427.03
2019-02-17T15:41:31.669Z,98432.56
2019-02-17T15:43:33.249Z,98428.73
2019-02-17T15:45:34.862Z,98422.86
2019-02-17T15:47:36.478Z,98427.12
2019-02-17T15:49:39.934Z,98425.05
2019-02-17T15:51:39.796Z,98420.88
2019-02-17T15:53:41.404Z,98420.06
2019-02-17T15:55:43.001Z,98421.34
2019-02-17T15:57:44.618Z,98425.22
2019-02-17T15:59:46.242Z,98389.80
2019-02-17T16:01:48.104Z,98433.73
2019-02-17T16:03:49.560Z,98416.83
2019-02-17T16:05:51.169Z,98427.73
2019-02-17T16:07:52.813Z,98426.02
2019-02-17T16:09:54.415Z,98430.20
2019-02-17T16:11:56.000Z,98422.49
2019-02-17T16:13:57.608Z,98419.93
2019-02-17T16:15:59.216Z,98418.56
2019-02-17T16:18:00.858Z,98415.11
2019-02-17T16:20:02.456Z,98420.60
2019-02-17T16:22:04.074Z,98416.77
2019-02-17T16:24:05.683Z,98419.30
2019-02-17T16:26:07.281Z,98416.63
2019-02-17T16:28:08.865Z,98417.09
2019-02-17T16:30:10.490Z,98416.65
2019-02-17T16:32:12.127Z,98418.06
2019-02-17T16:34:13.718Z,98418.05
2019-02-17T16:36:15.327Z,98416.66
2019-02-17T16:38:16.939Z,98417.04
2019-02-17T16:40:18.534Z,98419.44
2019-02-17T16:42:20.129Z,98423.03
2019-02-17T16:44:21.781Z,98424.59
2019-02-17T16:46:23.422Z,98426.42
2019-02-17T16:48:25.013Z,98430.44
2019-02-17T16:50:26.662Z,98429.22
2019-02-17T16:52:28.264Z,98431.97
2019-02-17T16:54:29.859Z,98429.61
2019-02-17T16:56:31.458Z,98423.08
2019-02-17T16:58:33.167Z,98434.12
2019-02-17T17:00:34.774Z,98428.25
2019-02-17T17:02:36.375Z,98429.03
2019-02-17T17:04:47.807Z,98421.73
2019-02-17T17:06:39.649Z,98420.55
2019-02-17T17:08:41.279Z,98428.73
2019-02-17T17:10:42.864Z,98423.30
2019-02-17T17:12:44.489Z,98424.58
2019-02-17T17:14:46.081Z,98424.95
2019-02-17T17:16:48.007Z,98426.11
2019-02-17T17:18:49.504Z,98417.41
2019-02-17T17:20:51.115Z,98419.05
2019-02-17T17:22:52.746Z,98413.36
2019-02-17T17:24:54.329Z,98413.45
2019-02-17T17:26:55.924Z,98418.78
2019-02-17T17:28:57.527Z,98416.86
2019-02-17T17:30:59.121Z,98415.68
2019-02-17T17:33:00.732Z,98407.14
2019-02-17T17:35:02.403Z,98408.31
2019-02-17T17:37:03.998Z,98411.80
2019-02-17T17:39:06.637Z,98410.57
2019-02-17T17:41:08.238Z,98415.71
2019-02-17T17:43:09.824Z,98420.38
2019-02-17T17:45:11.432Z,98418.95
2019-02-17T17:47:13.059Z,98418.94
2019-02-17T17:49:19.357Z,98411.03
2019-02-17T17:51:16.363Z,98415.79
2019-02-17T17:53:17.952Z,98412.94
2019-02-17T17:55:19.549Z,98414.66
2019-02-17T17:57:21.199Z,98413.53
2019-02-17T17:59:22.793Z,98411.92
2019-02-17T18:01:24.410Z,98411.22
2019-02-17T18:03:26.035Z,98409.44
2019-02-17T18:05:27.637Z,98416.48
2019-02-17T18:07:29.376Z,98419.91
2019-02-17T18:09:31.463Z,98415.01
2019-02-17T18:11:33.079Z,98420.15
2019-02-17T18:13:34.673Z,98424.30
2019-02-17T18:15:36.311Z,98417.88
2019-02-17T18:17:37.913Z,98415.84
2019-02-17T18:19:39.509Z,98411.60
2019-02-17T18:21:41.133Z,98417.43
2019-02-17T18:23:42.739Z,98413.24
2019-02-17T18:25:44.354Z,98413.62
2019-02-17T18:27:45.949Z,98414.59
2019-02-17T18:29:47.632Z,98418.14
2019-02-17T18:31:49.292Z,98411.76
2019-02-17T18:33:50.912Z,98414.38
2019-02-17T18:35:52.523Z,98417.30
2019-02-17T18:37:54.365Z,98419.88
2019-02-17T18:39:55.975Z,98423.80
2019-02-17T18:41:57.628Z,98422.28
2019-02-17T18:43:59.240Z,98421.50
2019-02-17T18:46:00.842Z,98412.31
2019-02-17T18:48:02.434Z,98422.94
2019-02-17T18:50:04.048Z,98418.88
2019-02-17T18:52:05.667Z,98419.96
2019-02-17T18:54:07.320Z,98415.63
2019-02-17T18:56:08.928Z,98418.30
2019-02-17T18:58:10.542Z,98415.91
2019-02-17T19:00:12.216Z,98413.02
2019-02-17T19:02:13.845Z,98412.66
2019-02-17T19:04:15.471Z,98414.45
2019-02-17T19:06:17.143Z,98415.27
2019-02-17T19:08:18.762Z,98416.41
2019-02-17T19:10:20.386Z,98414.39
2019-02-17T19:12:22.016Z,98414.73
2019-02-17T19:14:23.643Z,98410.12
2019-02-17T19:16:25.336Z,98419.49
2019-02-17T19:18:26.938Z,98413.39
2019-02-17T19:20:28.563Z,98418.44
2019-02-17T19:22:30.162Z,98419.73
2019-02-17T19:24:31.774Z,98417.23
2019-02-17T19:26:33.412Z,98416.40
2019-02-17T19:28:35.000Z,98419.42
2019-02-17T19:30:36.644Z,98416.86
2019-02-17T19:32:38.266Z,98417.39
2019-02-17T19:34:39.866Z,98413.38
2019-02-17T19:36:41.455Z,98414.89
2019-02-17T19:38:43.095Z,98410.23
2019-02-17T19:40:44.707Z,98409.88
2019-02-17T19:42:46.310Z,98416.23
2019-02-17T19:44:48.016Z,98397.20
2019-02-17T19:46:49.746Z,98416.52
2019-02-17T19:48:51.367Z,98418.66
2019-02-17T19:50:52.979Z,98415.30
2019-02-17T19:52:54.563Z,98402.98
2019-02-17T19:54:56.174Z,98398.57
2019-02-17T19:56:57.798Z,98421.73
2019-02-17T19:58:59.408Z,98423.39
2019-02-17T20:01:01.010Z,98424.64
2019-02-17T20:03:04.509Z,98429.70
2019-02-17T20:05:06.105Z,98431.59
2019-02-17T20:07:07.716Z,98423.91
2019-02-17T20:09:09.327Z,98430.69
2019-02-17T20:11:10.940Z,98429.65
2019-02-17T20:13:13.027Z,98429.21
2019-02-17T20:15:14.620Z,98425.95
2019-02-17T20:17:16.241Z,98428.06
2019-02-17T20:19:17.901Z,98427.15
2019-02-17T20:21:19.535Z,98426.91
2019-02-17T20:23:21.175Z,98424.21
2019-02-17T20:25:22.793Z,98425.49
2019-02-17T20:27:24.428Z,98428.82
2019-02-17T20:29:26.039Z,98431.25
2019-02-17T20:31:27.655Z,98425.77
2019-02-17T20:33:29.268Z,98424.24
2019-02-17T20:35:30.904Z,98426.98
2019-02-17T20:37:32.537Z,98423.55
2019-02-17T20:39:34.171Z,98386.48
2019-02-17T20:41:35.779Z,98419.64
2019-02-17T20:43:37.419Z,98417.66
2019-02-17T20:45:39.024Z,98419.83
2019-02-17T20:47:40.640Z,98419.62
2019-02-17T20:49:42.270Z,98424.28
2019-02-17T20:51:43.898Z,98419.64
2019-02-17T20:53:45.495Z,98422.42
2019-02-17T20:55:47.381Z,98416.55
2019-02-17T20:57:49.022Z,98417.88
2019-02-17T20:59:50.654Z,98424.66
2019-02-17T21:01:52.379Z,98422.23
2019-02-17T21:03:53.966Z,98420.34
2019-02-17T21:05:55.552Z,98419.20
2019-02-17T21:07:57.170Z,98416.55
2019-02-17T21:09:58.840Z,98415.42
2019-02-17T21:12:00.532Z,98417.33
2019-02-17T21:14:02.144Z,98415.72
2019-02-17T21:16:03.755Z,98410.59
2019-02-17T21:18:05.378Z,98411.49
2019-02-17T21:20:06.986Z,98417.47
2019-02-17T21:22:08.817Z,98411.32
2019-02-17T21:24:10.396Z,98418.62
2019-02-17T21:26:11.992Z,98420.30
2019-02-17T21:28:13.610Z,98419.23
2019-02-17T21:30:15.211Z,98418.10
2019-02-17T21:32:16.912Z,98421.38
2019-02-17T21:34:18.595Z,98416.78
2019-02-17T21:36:23.178Z,98420.81
2019-02-17T21:38:21.927Z,98425.47
2019-02-17T21:40:23.522Z,98421.19
2019-02-17T21:42:25.169Z,98416.12
2019-02-17T21:44:26.762Z,98414.91
2019-02-17T21:46:28.358Z,98415.77
2019-02-17T21:48:29.956Z,98414.98
2019-02-17T21:50:31.559Z,98401.44
2019-02-17T21:52:33.166Z,98405.41
2019-02-17T21:54:35.402Z,98410.54
2019-02-17T21:56:37.007Z,98407.89
2019-02-17T21:58:38.595Z,98386.25
2019-02-17T22:00:40.240Z,98399.72
2019-02-17T22:02:41.837Z,98406.58
2019-02-17T22:04:43.434Z,98396.84
2019-02-17T22:06:45.029Z,98399.97
2019-02-17T22:08:46.621Z,98402.77
2019-02-17T22:10:48.214Z,98396.64
2019-02-17T22:12:51.330Z,98389.55
2019-02-17T22:14:51.580Z,98389.22
2019-02-17T22:16:53.189Z,98390.22
2019-02-17T22:18:54.818Z,98389.83
2019-02-17T22:20:56.432Z,98384.06
2019-02-17T22:22:58.058Z,98388.10
2019-02-17T22:24:59.667Z,98383.96
2019-02-17T22:27:01.253Z,98348.58
2019-02-17T22:29:02.856Z,98386.52
2019-02-17T22:31:04.492Z,98380.84
2019-02-17T22:33:06.090Z,98379.06
2019-02-17T22:35:07.729Z,98385.70
2019-02-17T22:37:09.343Z,98378.13
2019-02-17T22:39:10.938Z,98378.17
2019-02-17T22:41:12.520Z,98378.77
2019-02-17T22:43:14.146Z,98375.66
2019-02-17T22:45:15.740Z,98377.98
2019-02-17T22:47:17.345Z,98379.22
2019-02-17T22:49:18.923Z,98371.62
2019-02-17T22:51:20.531Z,98374.53
2019-02-17T22:53:22.769Z,98374.52
2019-02-17T22:55:24.366Z,98373.61
2019-02-17T22:57:25.966Z,98373.14
2019-02-17T22:59:27.590Z,98379.95
2019-02-17T23:01:29.185Z,98375.61
2019-02-17T23:03:30.778Z,98380.25
2019-02-17T23:05:32.437Z,98372.22
2019-02-17T23:07:34.043Z,98375.34
2019-02-17T23:09:35.641Z,98373.89
2019-02-17T23:11:37.237Z,98379.49
2019-02-17T23:13:39.136Z,98377.91
2019-02-17T23:15:40.724Z,98374.29
2019-02-17T23:17:42.330Z,98380.75
2019-02-17T23:19:43.937Z,98372.34
2019-02-17T23:21:45.533Z,98372.03
2019-02-17T23:23:47.135Z,98377.70
2019-02-17T23:25:48.765Z,98374.88
2019-02-17T23:27:50.353Z,98375.43
2019-02-17T23:29:52.031Z,98373.41
2019-02-17T23:31:53.662Z,98376.56
2019-02-17T23:33:55.323Z,98378.37
2019-02-17T23:35:57.059Z,98372.86
2019-02-17T23:37:58.657Z,98375.95
2019-02-17T23:40:00.311Z,98374.30
2019-02-17T23:42:01.906Z,98372.66
2019-02-17T23:44:03.550Z,98370.15
2019-02-17T23:46:05.168Z,98373.61
2019-02-17T23:48:06.772Z,98369.36
2019-02-17T23:50:08.395Z,98366.00
2019-02-17T23:52:09.981Z,98367.23
2019-02-17T23:54:11.577Z,98369.35
2019-02-17T23:56:13.173Z,98359.50
2019-02-17T23:58:14.770Z,98360.72
